sensor_id;sensor_type;location;lat;lon;timestamp;P1;durP1;ratioP1;P2;durP2;ratioP2
11988;SDS011;6054;50.966;7.094;2022-08-02T00:01:53;2.17;;;2.08;;
11988;SDS011;6054;50.966;7.094;2022-08-02T00:04:20;4.70;;;2.28;;
11988;SDS011;6054;50.966;7.094;2022-08-02T00:06:46;2.40;;;2.20;;
11988;SDS011;6054;50.966;7.094;2022-08-02T00:09:15;2.55;;;2.30;;
11988;SDS011;6054;50.966;7.094;2022-08-02T00:11:41;2.65;;;2.20;;
11988;SDS011;6054;50.966;7.094;2022-08-02T00:14:08;2.50;;;2.30;;
11988;SDS011;6054;50.966;7.094;2022-08-02T00:16:35;2.70;;;2.47;;
11988;SDS011;6054;50.966;7.094;2022-08-02T00:19:02;2.20;;;2.10;;
11988;SDS011;6054;50.966;7.094;2022-08-02T00:21:29;2.30;;;2.20;;
11988;SDS011;6054;50.966;7.094;2022-08-02T00:23:56;2.63;;;2.20;;
11988;SDS011;6054;50.966;7.094;2022-08-02T00:26:24;2.45;;;2.28;;
11988;SDS011;6054;50.966;7.094;2022-08-02T00:28:51;4.15;;;2.53;;
11988;SDS011;6054;50.966;7.094;2022-08-02T00:31:18;2.70;;;2.50;;
11988;SDS011;6054;50.966;7.094;2022-08-02T00:33:44;3.88;;;2.50;;
11988;SDS011;6054;50.966;7.094;2022-08-02T00:36:11;2.53;;;2.33;;
11988;SDS011;6054;50.966;7.094;2022-08-02T00:38:38;2.65;;;2.45;;
11988;SDS011;6054;50.966;7.094;2022-08-02T00:41:09;2.65;;;2.28;;
11988;SDS011;6054;50.966;7.094;2022-08-02T00:43:39;3.33;;;2.33;;
11988;SDS011;6054;50.966;7.094;2022-08-02T00:46:06;2.38;;;2.28;;
11988;SDS011;6054;50.966;7.094;2022-08-02T00:48:33;2.67;;;2.47;;
11988;SDS011;6054;50.966;7.094;2022-08-02T00:51:00;2.47;;;2.28;;
11988;SDS011;6054;50.966;7.094;2022-08-02T00:53:27;2.65;;;2.25;;
11988;SDS011;6054;50.966;7.094;2022-08-02T00:55:54;3.78;;;2.78;;
11988;SDS011;6054;50.966;7.094;2022-08-02T00:58:20;2.55;;;2.25;;
11988;SDS011;6054;50.966;7.094;2022-08-02T01:00:49;2.92;;;2.33;;
11988;SDS011;6054;50.966;7.094;2022-08-02T01:03:15;4.10;;;2.40;;
11988;SDS011;6054;50.966;7.094;2022-08-02T01:05:43;4.13;;;2.70;;
11988;SDS011;6054;50.966;7.094;2022-08-02T01:08:10;2.53;;;2.42;;
11988;SDS011;6054;50.966;7.094;2022-08-02T01:10:36;3.97;;;2.22;;
11988;SDS011;6054;50.966;7.094;2022-08-02T01:13:03;2.65;;;2.45;;
11988;SDS011;6054;50.966;7.094;2022-08-02T01:15:30;3.03;;;2.65;;
11988;SDS011;6054;50.966;7.094;2022-08-02T01:18:04;2.92;;;2.72;;
11988;SDS011;6054;50.966;7.094;2022-08-02T01:23:44;2.83;;;2.50;;
11988;SDS011;6054;50.966;7.094;2022-08-02T01:26:30;2.85;;;2.65;;
11988;SDS011;6054;50.966;7.094;2022-08-02T01:29:07;2.75;;;2.50;;
11988;SDS011;6054;50.966;7.094;2022-08-02T01:31:39;4.70;;;2.95;;
11988;SDS011;6054;50.966;7.094;2022-08-02T01:34:10;2.53;;;2.33;;
11988;SDS011;6054;50.966;7.094;2022-08-02T01:36:42;3.05;;;2.65;;
11988;SDS011;6054;50.966;7.094;2022-08-02T01:39:14;2.75;;;2.55;;
11988;SDS011;6054;50.966;7.094;2022-08-02T01:41:44;2.50;;;2.40;;
11988;SDS011;6054;50.966;7.094;2022-08-02T01:44:14;3.22;;;2.53;;
11988;SDS011;6054;50.966;7.094;2022-08-02T01:46:43;2.58;;;2.47;;
11988;SDS011;6054;50.966;7.094;2022-08-02T01:49:14;3.20;;;2.72;;
11988;SDS011;6054;50.966;7.094;2022-08-02T01:51:44;2.15;;;2.05;;
11988;SDS011;6054;50.966;7.094;2022-08-02T01:54:32;2.83;;;2.40;;
11988;SDS011;6054;50.966;7.094;2022-08-02T01:57:00;2.95;;;2.58;;
11988;SDS011;6054;50.966;7.094;2022-08-02T01:59:31;2.20;;;2.10;;
11988;SDS011;6054;50.966;7.094;2022-08-02T02:01:58;2.60;;;2.40;;
11988;SDS011;6054;50.966;7.094;2022-08-02T02:04:28;3.22;;;2.70;;
11988;SDS011;6054;50.966;7.094;2022-08-02T02:06:57;2.63;;;2.42;;
11988;SDS011;6054;50.966;7.094;2022-08-02T02:09:27;2.67;;;2.47;;
11988;SDS011;6054;50.966;7.094;2022-08-02T02:11:56;2.70;;;2.50;;
11988;SDS011;6054;50.966;7.094;2022-08-02T02:14:25;2.42;;;2.25;;
11988;SDS011;6054;50.966;7.094;2022-08-02T02:16:54;2.85;;;2.63;;
11988;SDS011;6054;50.966;7.094;2022-08-02T02:19:24;5.00;;;2.50;;
11988;SDS011;6054;50.966;7.094;2022-08-02T02:21:53;2.65;;;2.45;;
11988;SDS011;6054;50.966;7.094;2022-08-02T02:24:20;2.50;;;2.30;;
11988;SDS011;6054;50.966;7.094;2022-08-02T02:26:47;2.35;;;2.15;;
11988;SDS011;6054;50.966;7.094;2022-08-02T02:29:15;2.70;;;2.50;;
11988;SDS011;6054;50.966;7.094;2022-08-02T02:31:45;2.67;;;2.58;;
11988;SDS011;6054;50.966;7.094;2022-08-02T02:34:17;2.63;;;2.45;;
11988;SDS011;6054;50.966;7.094;2022-08-02T02:36:51;2.67;;;2.30;;
11988;SDS011;6054;50.966;7.094;2022-08-02T02:39:21;2.90;;;2.70;;
11988;SDS011;6054;50.966;7.094;2022-08-02T02:41:49;2.50;;;2.13;;
11988;SDS011;6054;50.966;7.094;2022-08-02T02:44:18;2.60;;;2.40;;
11988;SDS011;6054;50.966;7.094;2022-08-02T02:46:47;2.97;;;2.63;;
11988;SDS011;6054;50.966;7.094;2022-08-02T02:49:18;2.97;;;2.78;;
11988;SDS011;6054;50.966;7.094;2022-08-02T02:51:46;3.17;;;2.65;;
11988;SDS011;6054;50.966;7.094;2022-08-02T02:54:14;2.67;;;2.45;;
11988;SDS011;6054;50.966;7.094;2022-08-02T02:56:41;3.28;;;2.92;;
11988;SDS011;6054;50.966;7.094;2022-08-02T02:59:11;3.03;;;2.83;;
11988;SDS011;6054;50.966;7.094;2022-08-02T03:01:38;2.40;;;2.17;;
11988;SDS011;6054;50.966;7.094;2022-08-02T03:04:06;2.55;;;2.33;;
11988;SDS011;6054;50.966;7.094;2022-08-02T03:06:38;2.33;;;2.20;;
11988;SDS011;6054;50.966;7.094;2022-08-02T03:09:05;2.13;;;2.03;;
11988;SDS011;6054;50.966;7.094;2022-08-02T03:11:33;2.63;;;2.47;;
11988;SDS011;6054;50.966;7.094;2022-08-02T03:14:01;2.92;;;2.58;;
11988;SDS011;6054;50.966;7.094;2022-08-02T03:16:30;2.53;;;2.30;;
11988;SDS011;6054;50.966;7.094;2022-08-02T03:18:57;2.55;;;2.45;;
11988;SDS011;6054;50.966;7.094;2022-08-02T03:21:27;2.40;;;2.30;;
11988;SDS011;6054;50.966;7.094;2022-08-02T03:23:55;2.97;;;2.40;;
11988;SDS011;6054;50.966;7.094;2022-08-02T03:26:22;2.33;;;2.22;;
11988;SDS011;6054;50.966;7.094;2022-08-02T03:28:49;2.38;;;2.25;;
11988;SDS011;6054;50.966;7.094;2022-08-02T03:31:16;2.92;;;2.50;;
11988;SDS011;6054;50.966;7.094;2022-08-02T03:33:43;6.20;;;2.40;;
11988;SDS011;6054;50.966;7.094;2022-08-02T03:36:11;3.58;;;2.20;;
11988;SDS011;6054;50.966;7.094;2022-08-02T03:38:41;3.03;;;2.83;;
11988;SDS011;6054;50.966;7.094;2022-08-02T03:41:11;3.13;;;2.83;;
11988;SDS011;6054;50.966;7.094;2022-08-02T03:43:41;4.38;;;2.85;;
11988;SDS011;6054;50.966;7.094;2022-08-02T03:46:10;3.35;;;3.08;;
11988;SDS011;6054;50.966;7.094;2022-08-02T03:48:39;3.60;;;3.33;;
11988;SDS011;6054;50.966;7.094;2022-08-02T03:51:07;3.95;;;3.22;;
11988;SDS011;6054;50.966;7.094;2022-08-02T03:53:34;3.55;;;3.25;;
11988;SDS011;6054;50.966;7.094;2022-08-02T03:56:03;3.50;;;3.28;;
11988;SDS011;6054;50.966;7.094;2022-08-02T03:58:32;4.55;;;3.40;;
11988;SDS011;6054;50.966;7.094;2022-08-02T04:00:59;3.30;;;3.10;;
11988;SDS011;6054;50.966;7.094;2022-08-02T04:03:26;3.85;;;3.03;;
11988;SDS011;6054;50.966;7.094;2022-08-02T04:05:53;4.05;;;2.60;;
11988;SDS011;6054;50.966;7.094;2022-08-02T04:08:20;2.40;;;2.30;;
11988;SDS011;6054;50.966;7.094;2022-08-02T04:10:47;2.70;;;2.50;;
11988;SDS011;6054;50.966;7.094;2022-08-02T04:13:33;4.03;;;2.70;;
11988;SDS011;6054;50.966;7.094;2022-08-02T04:16:02;2.47;;;2.38;;
11988;SDS011;6054;50.966;7.094;2022-08-02T04:18:35;2.65;;;2.50;;
11988;SDS011;6054;50.966;7.094;2022-08-02T04:21:05;4.95;;;3.63;;
11988;SDS011;6054;50.966;7.094;2022-08-02T04:23:34;2.55;;;2.35;;
11988;SDS011;6054;50.966;7.094;2022-08-02T04:26:03;2.45;;;2.25;;
11988;SDS011;6054;50.966;7.094;2022-08-02T04:28:30;2.63;;;2.40;;
11988;SDS011;6054;50.966;7.094;2022-08-02T04:31:00;2.50;;;2.40;;
11988;SDS011;6054;50.966;7.094;2022-08-02T04:33:28;2.90;;;2.70;;
11988;SDS011;6054;50.966;7.094;2022-08-02T04:35:56;2.63;;;2.53;;
11988;SDS011;6054;50.966;7.094;2022-08-02T04:38:23;2.80;;;2.60;;
11988;SDS011;6054;50.966;7.094;2022-08-02T04:40:51;2.78;;;2.58;;
11988;SDS011;6054;50.966;7.094;2022-08-02T04:43:19;2.80;;;2.60;;
11988;SDS011;6054;50.966;7.094;2022-08-02T04:45:50;2.90;;;2.70;;
11988;SDS011;6054;50.966;7.094;2022-08-02T04:48:18;3.10;;;2.60;;
11988;SDS011;6054;50.966;7.094;2022-08-02T04:50:45;2.80;;;2.58;;
11988;SDS011;6054;50.966;7.094;2022-08-02T04:53:12;3.60;;;2.80;;
11988;SDS011;6054;50.966;7.094;2022-08-02T04:55:39;3.20;;;2.90;;
11988;SDS011;6054;50.966;7.094;2022-08-02T04:58:06;3.30;;;2.78;;
11988;SDS011;6054;50.966;7.094;2022-08-02T05:00:33;2.95;;;2.75;;
11988;SDS011;6054;50.966;7.094;2022-08-02T05:03:01;2.88;;;2.63;;
11988;SDS011;6054;50.966;7.094;2022-08-02T05:05:28;5.30;;;2.90;;
11988;SDS011;6054;50.966;7.094;2022-08-02T05:07:55;3.35;;;2.70;;
11988;SDS011;6054;50.966;7.094;2022-08-02T05:10:22;2.70;;;2.50;;
11988;SDS011;6054;50.966;7.094;2022-08-02T05:12:48;3.55;;;3.10;;
11988;SDS011;6054;50.966;7.094;2022-08-02T05:15:15;4.72;;;2.83;;
11988;SDS011;6054;50.966;7.094;2022-08-02T05:17:43;3.45;;;3.00;;
11988;SDS011;6054;50.966;7.094;2022-08-02T05:20:12;3.15;;;2.90;;
11988;SDS011;6054;50.966;7.094;2022-08-02T05:22:39;3.15;;;2.90;;
11988;SDS011;6054;50.966;7.094;2022-08-02T05:25:06;3.97;;;3.00;;
11988;SDS011;6054;50.966;7.094;2022-08-02T05:27:34;3.65;;;3.35;;
11988;SDS011;6054;50.966;7.094;2022-08-02T05:30:01;3.45;;;3.03;;
11988;SDS011;6054;50.966;7.094;2022-08-02T05:32:29;3.30;;;3.00;;
11988;SDS011;6054;50.966;7.094;2022-08-02T05:34:56;3.15;;;2.88;;
11988;SDS011;6054;50.966;7.094;2022-08-02T05:37:24;3.53;;;3.22;;
11988;SDS011;6054;50.966;7.094;2022-08-02T05:39:50;3.25;;;2.95;;
11988;SDS011;6054;50.966;7.094;2022-08-02T05:42:17;3.90;;;3.60;;
11988;SDS011;6054;50.966;7.094;2022-08-02T05:44:44;3.55;;;3.30;;
11988;SDS011;6054;50.966;7.094;2022-08-02T05:47:11;3.75;;;3.45;;
11988;SDS011;6054;50.966;7.094;2022-08-02T05:49:38;4.68;;;4.22;;
11988;SDS011;6054;50.966;7.094;2022-08-02T05:52:07;7.15;;;3.97;;
11988;SDS011;6054;50.966;7.094;2022-08-02T05:54:43;3.88;;;3.47;;
11988;SDS011;6054;50.966;7.094;2022-08-02T05:57:15;6.68;;;4.07;;
11988;SDS011;6054;50.966;7.094;2022-08-02T05:59:51;4.93;;;4.43;;
11988;SDS011;6054;50.966;7.094;2022-08-02T06:02:35;4.10;;;3.78;;
11988;SDS011;6054;50.966;7.094;2022-08-02T06:05:22;4.72;;;4.30;;
11988;SDS011;6054;50.966;7.094;2022-08-02T06:07:52;4.53;;;4.22;;
11988;SDS011;6054;50.966;7.094;2022-08-02T06:10:22;6.35;;;4.65;;
11988;SDS011;6054;50.966;7.094;2022-08-02T06:12:53;4.97;;;4.00;;
11988;SDS011;6054;50.966;7.094;2022-08-02T06:15:26;4.82;;;3.78;;
11988;SDS011;6054;50.966;7.094;2022-08-02T06:17:53;4.75;;;3.50;;
11988;SDS011;6054;50.966;7.094;2022-08-02T06:20:21;4.47;;;3.25;;
11988;SDS011;6054;50.966;7.094;2022-08-02T06:22:49;4.15;;;3.55;;
11988;SDS011;6054;50.966;7.094;2022-08-02T06:25:17;3.50;;;3.20;;
11988;SDS011;6054;50.966;7.094;2022-08-02T06:27:46;4.57;;;3.85;;
11988;SDS011;6054;50.966;7.094;2022-08-02T06:30:15;3.67;;;3.47;;
11988;SDS011;6054;50.966;7.094;2022-08-02T06:32:42;6.25;;;3.15;;
11988;SDS011;6054;50.966;7.094;2022-08-02T06:35:10;7.72;;;3.45;;
11988;SDS011;6054;50.966;7.094;2022-08-02T06:37:40;4.25;;;3.08;;
11988;SDS011;6054;50.966;7.094;2022-08-02T06:40:14;4.63;;;3.10;;
11988;SDS011;6054;50.966;7.094;2022-08-02T06:42:51;5.00;;;3.25;;
11988;SDS011;6054;50.966;7.094;2022-08-02T06:45:28;4.65;;;3.03;;
11988;SDS011;6054;50.966;7.094;2022-08-02T06:47:55;5.20;;;2.97;;
11988;SDS011;6054;50.966;7.094;2022-08-02T06:50:21;4.68;;;3.13;;
11988;SDS011;6054;50.966;7.094;2022-08-02T06:52:48;4.55;;;3.17;;
11988;SDS011;6054;50.966;7.094;2022-08-02T06:55:15;3.00;;;2.70;;
11988;SDS011;6054;50.966;7.094;2022-08-02T06:57:42;4.75;;;3.50;;
11988;SDS011;6054;50.966;7.094;2022-08-02T07:00:11;3.95;;;2.90;;
11988;SDS011;6054;50.966;7.094;2022-08-02T07:02:38;5.63;;;3.25;;
11988;SDS011;6054;50.966;7.094;2022-08-02T07:05:05;2.97;;;2.78;;
11988;SDS011;6054;50.966;7.094;2022-08-02T07:07:33;4.13;;;3.05;;
11988;SDS011;6054;50.966;7.094;2022-08-02T07:10:00;5.50;;;3.17;;
11988;SDS011;6054;50.966;7.094;2022-08-02T07:12:27;3.20;;;2.90;;
11988;SDS011;6054;50.966;7.094;2022-08-02T07:14:55;3.28;;;2.88;;
11988;SDS011;6054;50.966;7.094;2022-08-02T07:17:23;4.68;;;3.00;;
11988;SDS011;6054;50.966;7.094;2022-08-02T07:19:50;4.40;;;2.85;;
11988;SDS011;6054;50.966;7.094;2022-08-02T07:22:17;5.85;;;3.17;;
11988;SDS011;6054;50.966;7.094;2022-08-02T07:24:47;4.93;;;2.83;;
11988;SDS011;6054;50.966;7.094;2022-08-02T07:27:14;5.22;;;3.05;;
11988;SDS011;6054;50.966;7.094;2022-08-02T07:29:40;3.38;;;2.63;;
11988;SDS011;6054;50.966;7.094;2022-08-02T07:32:07;2.75;;;2.55;;
11988;SDS011;6054;50.966;7.094;2022-08-02T07:34:35;4.13;;;2.67;;
11988;SDS011;6054;50.966;7.094;2022-08-02T07:37:02;4.38;;;2.83;;
11988;SDS011;6054;50.966;7.094;2022-08-02T07:39:29;3.95;;;2.40;;
11988;SDS011;6054;50.966;7.094;2022-08-02T07:41:56;3.28;;;2.63;;
11988;SDS011;6054;50.966;7.094;2022-08-02T07:44:23;4.88;;;2.33;;
11988;SDS011;6054;50.966;7.094;2022-08-02T07:46:50;3.03;;;2.13;;
11988;SDS011;6054;50.966;7.094;2022-08-02T07:49:17;2.88;;;2.00;;
11988;SDS011;6054;50.966;7.094;2022-08-02T07:51:45;3.72;;;2.28;;
11988;SDS011;6054;50.966;7.094;2022-08-02T07:54:12;4.38;;;2.13;;
11988;SDS011;6054;50.966;7.094;2022-08-02T07:56:39;3.65;;;1.98;;
11988;SDS011;6054;50.966;7.094;2022-08-02T07:59:05;3.13;;;1.98;;
11988;SDS011;6054;50.966;7.094;2022-08-02T08:01:34;2.58;;;2.25;;
11988;SDS011;6054;50.966;7.094;2022-08-02T08:04:01;2.20;;;2.05;;
11988;SDS011;6054;50.966;7.094;2022-08-02T08:06:28;3.58;;;1.98;;
11988;SDS011;6054;50.966;7.094;2022-08-02T08:08:56;3.42;;;1.63;;
11988;SDS011;6054;50.966;7.094;2022-08-02T08:11:23;4.82;;;2.20;;
11988;SDS011;6054;50.966;7.094;2022-08-02T08:13:50;3.03;;;2.33;;
11988;SDS011;6054;50.966;7.094;2022-08-02T08:16:17;1.98;;;1.83;;
11988;SDS011;6054;50.966;7.094;2022-08-02T08:18:44;3.35;;;2.15;;
11988;SDS011;6054;50.966;7.094;2022-08-02T08:21:10;2.03;;;1.88;;
11988;SDS011;6054;50.966;7.094;2022-08-02T08:23:37;2.92;;;1.55;;
11988;SDS011;6054;50.966;7.094;2022-08-02T08:26:06;1.70;;;1.60;;
11988;SDS011;6054;50.966;7.094;2022-08-02T08:28:32;3.25;;;1.95;;
11988;SDS011;6054;50.966;7.094;2022-08-02T08:31:00;3.05;;;1.70;;
11988;SDS011;6054;50.966;7.094;2022-08-02T08:33:27;2.22;;;1.60;;
11988;SDS011;6054;50.966;7.094;2022-08-02T08:35:53;1.92;;;1.73;;
11988;SDS011;6054;50.966;7.094;2022-08-02T08:38:20;1.73;;;1.50;;
11988;SDS011;6054;50.966;7.094;2022-08-02T08:40:48;2.28;;;1.52;;
11988;SDS011;6054;50.966;7.094;2022-08-02T08:43:16;1.70;;;1.60;;
11988;SDS011;6054;50.966;7.094;2022-08-02T08:45:43;3.17;;;1.58;;
11988;SDS011;6054;50.966;7.094;2022-08-02T08:48:10;1.58;;;1.48;;
11988;SDS011;6054;50.966;7.094;2022-08-02T08:50:41;1.77;;;1.67;;
11988;SDS011;6054;50.966;7.094;2022-08-02T08:53:13;2.03;;;1.60;;
11988;SDS011;6054;50.966;7.094;2022-08-02T08:55:41;4.07;;;2.10;;
11988;SDS011;6054;50.966;7.094;2022-08-02T08:58:08;2.25;;;1.85;;
11988;SDS011;6054;50.966;7.094;2022-08-02T09:00:39;4.53;;;2.33;;
11988;SDS011;6054;50.966;7.094;2022-08-02T09:03:06;3.90;;;1.92;;
11988;SDS011;6054;50.966;7.094;2022-08-02T09:05:34;1.90;;;1.80;;
11988;SDS011;6054;50.966;7.094;2022-08-02T09:08:01;5.45;;;2.00;;
11988;SDS011;6054;50.966;7.094;2022-08-02T09:10:32;2.50;;;1.88;;
11988;SDS011;6054;50.966;7.094;2022-08-02T09:13:11;2.20;;;1.95;;
11988;SDS011;6054;50.966;7.094;2022-08-02T09:15:42;3.28;;;2.00;;
11988;SDS011;6054;50.966;7.094;2022-08-02T09:18:11;2.20;;;2.08;;
11988;SDS011;6054;50.966;7.094;2022-08-02T09:20:51;5.18;;;2.53;;
11988;SDS011;6054;50.966;7.094;2022-08-02T09:23:21;2.85;;;2.30;;
11988;SDS011;6054;50.966;7.094;2022-08-02T09:25:55;3.80;;;2.30;;
11988;SDS011;6054;50.966;7.094;2022-08-02T09:28:27;2.28;;;1.90;;
11988;SDS011;6054;50.966;7.094;2022-08-02T09:31:06;2.78;;;1.95;;
11988;SDS011;6054;50.966;7.094;2022-08-02T09:33:33;2.60;;;1.70;;
11988;SDS011;6054;50.966;7.094;2022-08-02T09:36:02;2.90;;;1.95;;
11988;SDS011;6054;50.966;7.094;2022-08-02T09:38:30;6.03;;;1.90;;
11988;SDS011;6054;50.966;7.094;2022-08-02T09:40:58;1.90;;;1.80;;
11988;SDS011;6054;50.966;7.094;2022-08-02T09:43:39;1.83;;;1.73;;
11988;SDS011;6054;50.966;7.094;2022-08-02T09:46:12;2.97;;;1.92;;
11988;SDS011;6054;50.966;7.094;2022-08-02T09:48:46;2.50;;;2.00;;
11988;SDS011;6054;50.966;7.094;2022-08-02T09:51:17;4.43;;;1.95;;
11988;SDS011;6054;50.966;7.094;2022-08-02T09:53:51;1.85;;;1.75;;
11988;SDS011;6054;50.966;7.094;2022-08-02T09:56:20;2.53;;;2.20;;
11988;SDS011;6054;50.966;7.094;2022-08-02T09:58:48;3.55;;;1.85;;
11988;SDS011;6054;50.966;7.094;2022-08-02T10:01:20;3.70;;;2.28;;
11988;SDS011;6054;50.966;7.094;2022-08-02T10:03:57;4.13;;;2.22;;
11988;SDS011;6054;50.966;7.094;2022-08-02T10:06:25;3.58;;;1.90;;
11988;SDS011;6054;50.966;7.094;2022-08-02T10:08:52;1.70;;;1.60;;
11988;SDS011;6054;50.966;7.094;2022-08-02T10:11:20;4.18;;;1.65;;
11988;SDS011;6054;50.966;7.094;2022-08-02T10:13:47;2.00;;;1.90;;
11988;SDS011;6054;50.966;7.094;2022-08-02T10:16:14;1.92;;;1.83;;
11988;SDS011;6054;50.966;7.094;2022-08-02T10:18:44;4.35;;;2.15;;
11988;SDS011;6054;50.966;7.094;2022-08-02T10:21:13;5.32;;;1.70;;
11988;SDS011;6054;50.966;7.094;2022-08-02T10:23:44;1.63;;;1.60;;
11988;SDS011;6054;50.966;7.094;2022-08-02T10:26:14;2.30;;;1.77;;
11988;SDS011;6054;50.966;7.094;2022-08-02T10:28:43;2.05;;;1.77;;
11988;SDS011;6054;50.966;7.094;2022-08-02T10:31:13;2.55;;;1.95;;
11988;SDS011;6054;50.966;7.094;2022-08-02T10:33:45;1.95;;;1.77;;
11988;SDS011;6054;50.966;7.094;2022-08-02T10:36:14;2.10;;;1.58;;
11988;SDS011;6054;50.966;7.094;2022-08-02T10:38:42;2.00;;;1.90;;
11988;SDS011;6054;50.966;7.094;2022-08-02T10:41:10;2.60;;;1.77;;
11988;SDS011;6054;50.966;7.094;2022-08-02T10:43:45;2.13;;;1.63;;
11988;SDS011;6054;50.966;7.094;2022-08-02T10:46:29;1.60;;;1.48;;
11988;SDS011;6054;50.966;7.094;2022-08-02T10:54:47;2.08;;;1.30;;
11988;SDS011;6054;50.966;7.094;2022-08-02T10:57:16;1.90;;;1.45;;
11988;SDS011;6054;50.966;7.094;2022-08-02T10:59:44;1.48;;;1.33;;
11988;SDS011;6054;50.966;7.094;2022-08-02T11:02:12;1.92;;;1.40;;
11988;SDS011;6054;50.966;7.094;2022-08-02T11:05:03;2.92;;;1.73;;
11988;SDS011;6054;50.966;7.094;2022-08-02T11:07:41;2.17;;;1.40;;
11988;SDS011;6054;50.966;7.094;2022-08-02T11:13:03;1.60;;;1.50;;
11988;SDS011;6054;50.966;7.094;2022-08-02T11:15:49;1.55;;;1.45;;
11988;SDS011;6054;50.966;7.094;2022-08-02T11:18:21;2.45;;;1.65;;
11988;SDS011;6054;50.966;7.094;2022-08-02T11:23:48;2.17;;;1.67;;
11988;SDS011;6054;50.966;7.094;2022-08-02T11:29:08;2.25;;;2.05;;
11988;SDS011;6054;50.966;7.094;2022-08-02T11:31:39;3.15;;;1.90;;
11988;SDS011;6054;50.966;7.094;2022-08-02T11:34:07;2.10;;;2.00;;
11988;SDS011;6054;50.966;7.094;2022-08-02T11:36:46;2.15;;;1.50;;
11988;SDS011;6054;50.966;7.094;2022-08-02T11:39:15;3.83;;;1.90;;
11988;SDS011;6054;50.966;7.094;2022-08-02T11:41:47;2.13;;;1.95;;
11988;SDS011;6054;50.966;7.094;2022-08-02T11:44:15;2.95;;;1.80;;
11988;SDS011;6054;50.966;7.094;2022-08-02T11:46:42;6.07;;;1.95;;
11988;SDS011;6054;50.966;7.094;2022-08-02T11:49:10;5.57;;;1.80;;
11988;SDS011;6054;50.966;7.094;2022-08-02T11:51:51;2.03;;;1.80;;
11988;SDS011;6054;50.966;7.094;2022-08-02T11:54:23;2.95;;;1.73;;
11988;SDS011;6054;50.966;7.094;2022-08-02T11:56:50;1.55;;;1.55;;
11988;SDS011;6054;50.966;7.094;2022-08-02T11:59:18;4.03;;;1.85;;
11988;SDS011;6054;50.966;7.094;2022-08-02T12:01:45;2.63;;;1.95;;
11988;SDS011;6054;50.966;7.094;2022-08-02T12:04:14;3.20;;;2.03;;
11988;SDS011;6054;50.966;7.094;2022-08-02T12:06:43;6.60;;;1.92;;
11988;SDS011;6054;50.966;7.094;2022-08-02T12:09:20;1.60;;;1.50;;
11988;SDS011;6054;50.966;7.094;2022-08-02T12:11:47;1.83;;;1.40;;
11988;SDS011;6054;50.966;7.094;2022-08-02T12:14:15;3.35;;;1.55;;
11988;SDS011;6054;50.966;7.094;2022-08-02T12:16:42;3.00;;;1.48;;
11988;SDS011;6054;50.966;7.094;2022-08-02T12:19:26;2.05;;;1.58;;
11988;SDS011;6054;50.966;7.094;2022-08-02T12:22:08;2.97;;;1.63;;
11988;SDS011;6054;50.966;7.094;2022-08-02T12:24:37;1.92;;;1.80;;
11988;SDS011;6054;50.966;7.094;2022-08-02T12:27:05;1.95;;;1.70;;
11988;SDS011;6054;50.966;7.094;2022-08-02T12:29:32;2.00;;;1.90;;
11988;SDS011;6054;50.966;7.094;2022-08-02T12:32:00;1.40;;;1.40;;
11988;SDS011;6054;50.966;7.094;2022-08-02T12:34:29;1.75;;;1.63;;
11988;SDS011;6054;50.966;7.094;2022-08-02T12:36:57;1.77;;;1.40;;
11988;SDS011;6054;50.966;7.094;2022-08-02T12:39:35;1.98;;;1.83;;
11988;SDS011;6054;50.966;7.094;2022-08-02T12:42:06;1.48;;;1.33;;
11988;SDS011;6054;50.966;7.094;2022-08-02T12:44:34;1.75;;;1.65;;
11988;SDS011;6054;50.966;7.094;2022-08-02T12:47:03;1.73;;;1.63;;
11988;SDS011;6054;50.966;7.094;2022-08-02T12:49:31;5.85;;;1.73;;
11988;SDS011;6054;50.966;7.094;2022-08-02T12:51:58;2.60;;;1.65;;
11988;SDS011;6054;50.966;7.094;2022-08-02T12:54:26;2.13;;;1.63;;
11988;SDS011;6054;50.966;7.094;2022-08-02T12:56:55;2.25;;;1.60;;
11988;SDS011;6054;50.966;7.094;2022-08-02T12:59:32;2.60;;;1.40;;
11988;SDS011;6054;50.966;7.094;2022-08-02T13:02:04;1.95;;;1.73;;
11988;SDS011;6054;50.966;7.094;2022-08-02T13:04:32;6.13;;;2.00;;
11988;SDS011;6054;50.966;7.094;2022-08-02T13:06:59;1.83;;;1.73;;
11988;SDS011;6054;50.966;7.094;2022-08-02T13:09:26;2.35;;;1.75;;
11988;SDS011;6054;50.966;7.094;2022-08-02T13:11:53;1.98;;;1.80;;
11988;SDS011;6054;50.966;7.094;2022-08-02T13:14:21;2.15;;;1.70;;
11988;SDS011;6054;50.966;7.094;2022-08-02T13:16:48;3.58;;;1.88;;
11988;SDS011;6054;50.966;7.094;2022-08-02T13:19:15;2.47;;;1.73;;
11988;SDS011;6054;50.966;7.094;2022-08-02T13:21:43;1.75;;;1.65;;
11988;SDS011;6054;50.966;7.094;2022-08-02T13:24:10;8.82;;;1.83;;
11988;SDS011;6054;50.966;7.094;2022-08-02T13:26:40;1.80;;;1.70;;
11988;SDS011;6054;50.966;7.094;2022-08-02T13:29:08;4.53;;;1.90;;
11988;SDS011;6054;50.966;7.094;2022-08-02T13:31:36;1.98;;;1.80;;
11988;SDS011;6054;50.966;7.094;2022-08-02T13:34:03;4.57;;;1.88;;
11988;SDS011;6054;50.966;7.094;2022-08-02T13:36:31;1.92;;;1.80;;
11988;SDS011;6054;50.966;7.094;2022-08-02T13:38:58;3.72;;;2.08;;
11988;SDS011;6054;50.966;7.094;2022-08-02T13:41:25;1.85;;;1.70;;
11988;SDS011;6054;50.966;7.094;2022-08-02T13:43:52;1.98;;;1.88;;
11988;SDS011;6054;50.966;7.094;2022-08-02T13:46:18;3.10;;;1.98;;
11988;SDS011;6054;50.966;7.094;2022-08-02T13:48:46;2.28;;;1.90;;
11988;SDS011;6054;50.966;7.094;2022-08-02T13:51:13;1.75;;;1.70;;
11988;SDS011;6054;50.966;7.094;2022-08-02T13:53:40;2.15;;;2.00;;
11988;SDS011;6054;50.966;7.094;2022-08-02T13:56:07;5.13;;;1.77;;
11988;SDS011;6054;50.966;7.094;2022-08-02T13:58:34;1.70;;;1.60;;
11988;SDS011;6054;50.966;7.094;2022-08-02T14:01:01;2.00;;;1.73;;
11988;SDS011;6054;50.966;7.094;2022-08-02T14:03:28;1.73;;;1.73;;
11988;SDS011;6054;50.966;7.094;2022-08-02T14:05:56;1.90;;;1.80;;
11988;SDS011;6054;50.966;7.094;2022-08-02T14:08:23;1.95;;;1.85;;
11988;SDS011;6054;50.966;7.094;2022-08-02T14:10:50;1.80;;;1.70;;
11988;SDS011;6054;50.966;7.094;2022-08-02T14:13:17;1.95;;;1.83;;
11988;SDS011;6054;50.966;7.094;2022-08-02T14:15:44;1.80;;;1.67;;
11988;SDS011;6054;50.966;7.094;2022-08-02T14:18:11;3.05;;;1.67;;
11988;SDS011;6054;50.966;7.094;2022-08-02T14:20:39;4.13;;;1.80;;
11988;SDS011;6054;50.966;7.094;2022-08-02T14:23:07;1.83;;;1.73;;
11988;SDS011;6054;50.966;7.094;2022-08-02T14:25:34;1.80;;;1.70;;
11988;SDS011;6054;50.966;7.094;2022-08-02T14:28:01;2.67;;;1.60;;
11988;SDS011;6054;50.966;7.094;2022-08-02T14:30:28;1.80;;;1.70;;
11988;SDS011;6054;50.966;7.094;2022-08-02T14:32:55;1.60;;;1.50;;
11988;SDS011;6054;50.966;7.094;2022-08-02T14:35:22;3.15;;;1.60;;
11988;SDS011;6054;50.966;7.094;2022-08-02T14:37:49;1.73;;;1.63;;
11988;SDS011;6054;50.966;7.094;2022-08-02T14:40:17;3.05;;;1.70;;
11988;SDS011;6054;50.966;7.094;2022-08-02T14:42:44;2.58;;;1.80;;
11988;SDS011;6054;50.966;7.094;2022-08-02T14:45:11;2.35;;;1.70;;
11988;SDS011;6054;50.966;7.094;2022-08-02T14:47:39;1.90;;;1.77;;
11988;SDS011;6054;50.966;7.094;2022-08-02T14:50:06;1.73;;;1.63;;
11988;SDS011;6054;50.966;7.094;2022-08-02T14:52:33;1.75;;;1.65;;
11988;SDS011;6054;50.966;7.094;2022-08-02T14:54:59;3.03;;;1.83;;
11988;SDS011;6054;50.966;7.094;2022-08-02T14:57:29;2.65;;;1.90;;
11988;SDS011;6054;50.966;7.094;2022-08-02T14:59:56;3.85;;;1.83;;
11988;SDS011;6054;50.966;7.094;2022-08-02T15:02:25;2.60;;;1.88;;
11988;SDS011;6054;50.966;7.094;2022-08-02T15:04:52;1.73;;;1.63;;
11988;SDS011;6054;50.966;7.094;2022-08-02T15:07:19;2.50;;;2.28;;
11988;SDS011;6054;50.966;7.094;2022-08-02T15:09:46;1.92;;;1.63;;
11988;SDS011;6054;50.966;7.094;2022-08-02T15:12:12;6.13;;;1.75;;
11988;SDS011;6054;50.966;7.094;2022-08-02T15:14:41;1.95;;;1.80;;
11988;SDS011;6054;50.966;7.094;2022-08-02T15:17:08;5.57;;;2.00;;
11988;SDS011;6054;50.966;7.094;2022-08-02T15:19:35;1.83;;;1.73;;
11988;SDS011;6054;50.966;7.094;2022-08-02T15:22:02;3.60;;;1.70;;
11988;SDS011;6054;50.966;7.094;2022-08-02T15:24:29;2.95;;;1.80;;
11988;SDS011;6054;50.966;7.094;2022-08-02T15:26:56;1.77;;;1.67;;
11988;SDS011;6054;50.966;7.094;2022-08-02T15:29:23;1.70;;;1.60;;